createdAt,value
2023-02-06T00:01:34.349Z,1.60
2023-02-06T00:04:02.729Z,1.63
2023-02-06T00:06:31.090Z,2.07
2023-02-06T00:08:59.165Z,2.47
2023-02-06T00:11:27.422Z,1.80
2023-02-06T00:13:55.400Z,1.77
2023-02-06T00:16:27.608Z,1.83
2023-02-06T00:18:57.333Z,1.40
2023-02-06T00:21:26.972Z,2.50
2023-02-06T00:23:57.586Z,2.07
2023-02-06T00:26:25.983Z,1.80
2023-02-06T00:28:54.096Z,2.87
2023-02-06T00:31:23.887Z,1.83
2023-02-06T00:33:51.962Z,2.50
2023-02-06T00:36:20.086Z,2.60
2023-02-06T00:38:48.115Z,2.60
2023-02-06T00:41:16.219Z,2.33
2023-02-06T00:43:44.362Z,2.53
2023-02-06T00:46:12.874Z,2.00
2023-02-06T00:48:42.888Z,2.10
2023-02-06T00:51:11.023Z,1.50
2023-02-06T00:53:39.355Z,2.00
2023-02-06T00:56:07.710Z,1.57
2023-02-06T00:58:35.835Z,1.80
2023-02-06T01:01:04.336Z,2.77
2023-02-06T01:03:32.436Z,2.20
2023-02-06T01:06:01.847Z,1.80
2023-02-06T01:08:29.819Z,1.43
2023-02-06T01:10:57.844Z,2.90
2023-02-06T01:13:25.969Z,1.80
2023-02-06T01:15:53.968Z,2.40
2023-02-06T01:18:22.020Z,1.80
2023-02-06T01:20:49.994Z,2.50
2023-02-06T01:23:19.342Z,2.30
2023-02-06T01:25:47.270Z,1.70
2023-02-06T01:28:15.248Z,2.20
2023-02-06T01:30:43.298Z,1.87
2023-02-06T01:33:11.316Z,1.63
2023-02-06T01:35:39.275Z,1.80
2023-02-06T01:38:07.254Z,1.67
2023-02-06T01:40:36.617Z,2.20
2023-02-06T01:43:04.578Z,1.90
2023-02-06T01:45:45.296Z,1.27
2023-02-06T01:48:18.798Z,1.60
2023-02-06T01:50:52.722Z,1.60
2023-02-06T01:53:22.637Z,1.50
2023-02-06T01:55:53.817Z,1.40
2023-02-06T01:58:27.624Z,1.53
2023-02-06T02:00:56.495Z,1.33
2023-02-06T02:03:24.685Z,1.57
2023-02-06T02:05:58.657Z,1.47
2023-02-06T02:08:37.434Z,1.43
2023-02-06T02:11:12.144Z,1.00
2023-02-06T02:13:40.662Z,1.50
2023-02-06T02:16:16.246Z,2.00
2023-02-06T02:19:09.658Z,2.00
2023-02-06T02:22:06.874Z,1.80
2023-02-06T02:25:00.818Z,1.50
2023-02-06T02:27:52.190Z,0.90
2023-02-06T02:31:08.894Z,1.20
2023-02-06T02:34:00.834Z,1.67
2023-02-06T02:36:35.926Z,1.83
2023-02-06T02:39:10.680Z,1.53
2023-02-06T02:41:44.797Z,1.00
2023-02-06T02:44:20.576Z,2.00
2023-02-06T02:46:53.370Z,1.70
2023-02-06T02:49:26.170Z,1.80
2023-02-06T02:51:56.197Z,1.40
2023-02-06T02:54:24.232Z,1.53
2023-02-06T02:56:52.403Z,1.57
2023-02-06T02:59:26.746Z,1.33
2023-02-06T03:02:00.266Z,2.00
2023-02-06T03:04:36.136Z,1.40
2023-02-06T03:07:16.744Z,2.30
2023-02-06T03:09:57.396Z,1.70
2023-02-06T03:12:36.368Z,1.70
2023-02-06T03:15:10.702Z,1.53
2023-02-06T03:17:43.364Z,1.20
2023-02-06T03:20:13.017Z,1.30
2023-02-06T03:22:45.965Z,1.67
2023-02-06T03:25:19.906Z,1.80
2023-02-06T03:27:49.266Z,1.77
2023-02-06T03:30:19.204Z,2.30
2023-02-06T03:32:51.315Z,1.60
2023-02-06T03:35:23.882Z,1.77
2023-02-06T03:37:53.975Z,1.40
2023-02-06T03:40:22.724Z,2.67
2023-02-06T03:42:56.114Z,1.53
2023-02-06T03:45:29.936Z,1.03
2023-02-06T03:48:03.236Z,2.00
2023-02-06T03:50:33.789Z,1.93
2023-02-06T03:53:04.750Z,1.23
2023-02-06T03:55:32.860Z,1.30
2023-02-06T03:58:06.669Z,1.20
2023-02-06T04:00:35.718Z,1.40
2023-02-06T04:03:05.443Z,2.07
2023-02-06T04:05:33.619Z,1.60
2023-02-06T04:08:03.116Z,1.40
2023-02-06T04:10:31.279Z,1.73
2023-02-06T04:12:59.429Z,1.23
2023-02-06T04:15:27.535Z,1.23
2023-02-06T04:18:01.112Z,1.20
2023-02-06T04:20:31.104Z,1.77
2023-02-06T04:22:59.550Z,1.33
2023-02-06T04:25:28.949Z,1.50
2023-02-06T04:27:56.978Z,1.00
2023-02-06T04:30:25.055Z,1.57
2023-02-06T04:32:53.186Z,1.57
2023-02-06T04:35:21.341Z,1.27
2023-02-06T04:37:49.335Z,1.93
2023-02-06T04:40:17.860Z,1.70
2023-02-06T04:42:47.250Z,1.10
2023-02-06T04:45:15.710Z,1.73
2023-02-06T04:47:43.745Z,1.43
2023-02-06T04:50:11.938Z,1.43
2023-02-06T04:52:39.871Z,1.10
2023-02-06T04:55:08.852Z,1.17
2023-02-06T04:57:36.880Z,1.20
2023-02-06T05:00:09.159Z,1.70
2023-02-06T05:02:39.562Z,1.00
2023-02-06T05:05:09.862Z,1.60
2023-02-06T05:07:38.240Z,1.27
2023-02-06T05:10:08.882Z,1.40
2023-02-06T05:12:37.238Z,1.70
2023-02-06T05:15:07.864Z,1.27
2023-02-06T05:17:36.506Z,1.13
2023-02-06T05:20:05.630Z,1.60
2023-02-06T05:22:33.612Z,0.87
2023-02-06T05:25:01.608Z,1.50
2023-02-06T05:27:29.592Z,2.23
2023-02-06T05:29:57.552Z,1.90
2023-02-06T05:32:26.883Z,1.40
2023-02-06T05:34:54.867Z,1.40
2023-02-06T05:37:22.854Z,1.43
2023-02-06T05:39:50.794Z,1.47
2023-02-06T05:42:18.842Z,1.53
2023-02-06T05:44:46.838Z,1.40
2023-02-06T05:47:14.875Z,1.93
2023-02-06T05:49:44.771Z,1.47
2023-02-06T05:52:12.977Z,1.00
2023-02-06T05:54:40.986Z,1.70
2023-02-06T05:57:08.978Z,3.53
2023-02-06T05:59:37.226Z,1.40
2023-02-06T06:02:06.983Z,1.60
2023-02-06T06:04:34.968Z,1.73
2023-02-06T06:07:05.036Z,1.00
2023-02-06T06:09:33.132Z,1.50
2023-02-06T06:12:01.224Z,1.43
2023-02-06T06:14:29.486Z,1.33
2023-02-06T06:16:57.481Z,1.00
2023-02-06T06:19:25.446Z,0.80
2023-02-06T06:21:53.484Z,1.33
2023-02-06T06:24:22.806Z,1.43
2023-02-06T06:26:50.793Z,0.97
2023-02-06T06:29:18.961Z,1.70
2023-02-06T06:31:47.110Z,1.20
2023-02-06T06:34:15.198Z,1.27
2023-02-06T06:36:43.303Z,1.50
2023-02-06T06:39:11.583Z,1.63
2023-02-06T06:41:41.094Z,1.20
2023-02-06T06:44:09.046Z,0.90
2023-02-06T06:46:37.021Z,1.10
2023-02-06T06:49:05.333Z,1.53
2023-02-06T06:51:33.405Z,1.10
2023-02-06T06:54:01.404Z,1.57
2023-02-06T06:56:29.335Z,1.47
2023-02-06T06:58:58.880Z,1.70
2023-02-06T07:01:27.058Z,1.20
2023-02-06T07:03:55.096Z,1.53
2023-02-06T07:06:23.124Z,1.37
2023-02-06T07:08:51.093Z,1.30
2023-02-06T07:11:19.160Z,1.30
2023-02-06T07:13:47.677Z,2.30
2023-02-06T07:16:17.070Z,0.90
2023-02-06T07:18:45.157Z,1.20
2023-02-06T07:21:15.749Z,1.43
2023-02-06T07:23:43.893Z,2.10
2023-02-06T07:26:12.185Z,1.80
2023-02-06T07:28:42.161Z,1.63
2023-02-06T07:31:10.894Z,1.33
2023-02-06T07:33:40.179Z,1.30
2023-02-06T07:36:11.945Z,1.10
2023-02-06T07:38:40.272Z,1.10
2023-02-06T07:41:09.268Z,1.50
2023-02-06T07:43:37.799Z,1.10
2023-02-06T07:46:07.140Z,1.07
2023-02-06T07:48:35.285Z,1.27
2023-02-06T07:51:09.358Z,1.40
2023-02-06T07:53:38.648Z,1.63
2023-02-06T07:56:12.953Z,1.60
2023-02-06T07:58:41.737Z,2.03
2023-02-06T08:01:10.699Z,2.00
2023-02-06T08:03:38.754Z,1.57
2023-02-06T08:06:14.607Z,1.70
2023-02-06T08:08:43.851Z,1.60
2023-02-06T08:11:18.584Z,2.10
2023-02-06T08:13:47.526Z,2.47
2023-02-06T08:16:19.452Z,2.07
2023-02-06T08:18:47.807Z,2.33
2023-02-06T08:21:20.804Z,3.60
2023-02-06T08:23:54.873Z,2.63
2023-02-06T08:26:23.266Z,2.60
2023-02-06T08:28:52.795Z,3.00
2023-02-06T08:31:25.151Z,2.27
2023-02-06T08:33:53.855Z,2.50
2023-02-06T08:36:25.188Z,2.60
2023-02-06T08:38:53.821Z,3.47
2023-02-06T08:41:24.878Z,2.90
2023-02-06T08:43:58.521Z,2.30
2023-02-06T08:46:29.985Z,2.83
2023-02-06T08:48:59.682Z,2.83
2023-02-06T08:51:29.513Z,2.60
2023-02-06T08:53:58.574Z,1.97
2023-02-06T08:56:28.059Z,2.63
2023-02-06T08:58:56.213Z,2.40
2023-02-06T09:01:24.287Z,3.23
2023-02-06T09:03:56.294Z,2.57
2023-02-06T09:06:25.450Z,3.40
2023-02-06T09:08:56.673Z,3.43
2023-02-06T09:11:27.241Z,2.77
2023-02-06T09:13:57.382Z,3.17
2023-02-06T09:16:27.018Z,2.73
2023-02-06T09:19:01.274Z,3.60
2023-02-06T09:21:32.065Z,8.07
2023-02-06T09:24:05.190Z,9.10
2023-02-06T09:26:40.580Z,9.10
2023-02-06T09:29:13.739Z,9.13
2023-02-06T09:31:43.855Z,9.70
2023-02-06T09:34:13.567Z,6.20
2023-02-06T09:36:42.015Z,6.20
2023-02-06T09:39:11.417Z,5.27
2023-02-06T09:41:44.033Z,5.70
2023-02-06T09:44:19.273Z,5.23
2023-02-06T09:46:52.593Z,6.03
2023-02-06T09:49:26.248Z,5.97
2023-02-06T09:52:13.953Z,5.30
2023-02-06T09:54:54.293Z,5.30
2023-02-06T09:57:31.354Z,5.07
2023-02-06T10:00:02.623Z,5.40
2023-02-06T10:02:56.027Z,5.70
2023-02-06T10:05:40.278Z,6.17
2023-02-06T10:08:18.198Z,6.07
2023-02-06T10:10:53.253Z,5.83
2023-02-06T10:13:28.198Z,4.87
2023-02-06T10:16:01.478Z,4.90
2023-02-06T10:18:37.121Z,5.23
2023-02-06T10:21:13.794Z,5.60
2023-02-06T10:23:47.894Z,6.03
2023-02-06T10:26:22.145Z,6.53
2023-02-06T10:28:52.797Z,6.93
2023-02-06T10:31:54.805Z,7.10
2023-02-06T10:34:39.848Z,5.50
2023-02-06T10:37:47.557Z,5.97
2023-02-06T10:40:30.876Z,5.40
2023-02-06T10:43:11.482Z,6.00
2023-02-06T10:45:46.507Z,5.07
2023-02-06T10:48:28.606Z,5.50
2023-02-06T10:51:08.599Z,5.43
2023-02-06T10:53:41.700Z,5.20
2023-02-06T10:56:13.230Z,5.03
2023-02-06T10:58:47.830Z,5.30
2023-02-06T11:01:26.005Z,5.67
2023-02-06T11:04:01.060Z,4.10
2023-02-06T11:06:30.857Z,4.47
2023-02-06T11:08:59.311Z,5.50
2023-02-06T11:11:30.605Z,5.27
2023-02-06T11:14:06.961Z,4.00
2023-02-06T11:16:37.350Z,5.07
2023-02-06T11:19:17.612Z,4.37
2023-02-06T11:21:56.327Z,4.93
2023-02-06T11:24:26.031Z,5.07
2023-02-06T11:26:58.448Z,4.30
2023-02-06T11:29:31.706Z,4.80
2023-02-06T11:32:03.254Z,4.33
2023-02-06T11:34:34.756Z,4.27
2023-02-06T11:37:05.418Z,4.40
2023-02-06T11:39:35.555Z,4.60
2023-02-06T11:42:07.224Z,4.10
2023-02-06T11:44:42.566Z,4.30
2023-02-06T11:47:29.460Z,4.77
2023-02-06T11:49:58.759Z,3.80
2023-02-06T11:52:32.816Z,4.97
2023-02-06T11:55:02.858Z,4.57
2023-02-06T11:57:33.812Z,4.13
2023-02-06T12:00:20.927Z,4.10
2023-02-06T12:02:53.962Z,3.80
2023-02-06T12:05:26.497Z,4.60
2023-02-06T12:07:59.989Z,4.73
2023-02-06T12:10:31.757Z,4.37
2023-02-06T12:13:08.149Z,4.80
2023-02-06T12:15:47.520Z,3.63
2023-02-06T12:18:21.782Z,4.17
2023-02-06T12:20:53.684Z,4.00
2023-02-06T12:23:27.390Z,4.93
2023-02-06T12:26:01.044Z,3.90
2023-02-06T12:28:37.320Z,3.97
2023-02-06T12:31:13.063Z,4.30
2023-02-06T12:33:46.069Z,4.27
2023-02-06T12:36:18.284Z,5.30
2023-02-06T12:38:52.458Z,4.10
2023-02-06T12:41:54.683Z,4.50
2023-02-06T12:44:28.939Z,3.93
2023-02-06T12:47:05.165Z,4.50
2023-02-06T12:49:39.755Z,4.13
2023-02-06T12:52:17.852Z,4.13
2023-02-06T12:54:52.305Z,4.60
2023-02-06T12:57:24.073Z,3.90
2023-02-06T13:00:56.774Z,4.80
2023-02-06T13:03:34.296Z,4.30
2023-02-06T13:06:13.265Z,4.60
2023-02-06T13:08:47.529Z,4.80
2023-02-06T13:11:35.010Z,4.50
2023-02-06T13:14:08.076Z,5.30
2023-02-06T13:16:57.500Z,5.00
2023-02-06T13:19:33.073Z,5.20
2023-02-06T13:22:44.837Z,3.90
2023-02-06T13:25:49.600Z,4.20
2023-02-06T13:29:22.523Z,5.50
2023-02-06T13:31:50.710Z,6.47
2023-02-06T13:34:19.545Z,5.63
2023-02-06T13:36:53.372Z,5.10
2023-02-06T13:39:34.524Z,5.70
2023-02-06T13:42:33.453Z,5.77
2023-02-06T13:45:04.718Z,4.83
2023-02-06T13:48:17.851Z,5.73
2023-02-06T13:51:30.066Z,4.70
2023-02-06T13:54:36.853Z,5.40
2023-02-06T13:57:55.138Z,5.13
2023-02-06T14:00:26.051Z,5.03
2023-02-06T14:02:58.240Z,5.30
2023-02-06T14:05:37.762Z,6.23
2023-02-06T14:08:21.252Z,6.00
2023-02-06T14:11:27.032Z,4.83
2023-02-06T14:14:24.177Z,5.60
2023-02-06T14:17:03.292Z,4.57
2023-02-06T14:19:43.152Z,4.00
2023-02-06T14:22:24.944Z,4.70
2023-02-06T14:25:12.822Z,5.40
2023-02-06T14:27:59.731Z,5.30
2023-02-06T14:30:38.852Z,4.60
2023-02-06T14:33:23.703Z,5.50
2023-02-06T14:36:08.480Z,8.87
2023-02-06T14:39:11.237Z,9.40
2023-02-06T14:41:40.270Z,7.70
2023-02-06T14:44:14.580Z,6.27
2023-02-06T14:46:44.119Z,7.20
2023-02-06T14:49:18.943Z,6.40
2023-02-06T14:51:51.683Z,5.20
2023-02-06T14:54:32.831Z,5.17
2023-02-06T14:57:03.405Z,5.65
2023-02-06T14:59:33.626Z,5.55
2023-02-06T15:02:14.727Z,5.40
2023-02-06T15:04:47.775Z,4.87
2023-02-06T15:07:26.878Z,5.43
2023-02-06T15:10:05.553Z,4.87
2023-02-06T15:12:34.772Z,4.97
2023-02-06T15:15:18.346Z,4.90
2023-02-06T15:17:58.450Z,4.47
2023-02-06T15:20:30.944Z,4.90
2023-02-06T15:23:16.626Z,5.90
2023-02-06T15:26:03.163Z,4.73
2023-02-06T15:28:36.326Z,4.17
2023-02-06T15:31:17.789Z,3.67
2023-02-06T15:33:50.799Z,4.00
2023-02-06T15:36:26.005Z,3.70
2023-02-06T15:38:54.170Z,4.77
2023-02-06T15:41:22.429Z,4.73
2023-02-06T15:43:51.948Z,3.60
2023-02-06T15:46:21.650Z,4.53
2023-02-06T15:48:52.767Z,4.10
2023-02-06T15:51:25.115Z,3.83
2023-02-06T15:54:07.031Z,4.40
2023-02-06T15:56:38.646Z,4.25
2023-02-06T15:59:15.719Z,4.33
2023-02-06T16:01:45.971Z,4.13
2023-02-06T16:04:19.708Z,4.13
2023-02-06T16:07:01.266Z,4.00
2023-02-06T16:09:29.625Z,4.00
2023-02-06T16:11:58.936Z,3.97
2023-02-06T16:14:35.240Z,3.10
2023-02-06T16:17:21.044Z,3.90
2023-02-06T16:19:58.211Z,4.20
2023-02-06T16:22:28.518Z,4.00
2023-02-06T16:25:13.730Z,4.13
2023-02-06T16:27:46.120Z,4.00
2023-02-06T16:30:26.399Z,2.87
2023-02-06T16:32:58.046Z,4.47
2023-02-06T16:35:27.404Z,4.20
2023-02-06T16:37:55.841Z,3.57
2023-02-06T16:40:26.038Z,4.75
2023-02-06T16:42:54.326Z,3.40
2023-02-06T16:45:28.287Z,3.90
2023-02-06T16:47:57.716Z,3.00
2023-02-06T16:50:25.800Z,3.70
2023-02-06T16:52:56.110Z,3.70
2023-02-06T16:55:28.851Z,4.03
2023-02-06T16:58:00.890Z,3.80
2023-02-06T17:00:31.594Z,4.43
2023-02-06T17:03:01.582Z,4.50
2023-02-06T17:05:31.465Z,3.77
2023-02-06T17:08:01.581Z,2.80
2023-02-06T17:10:29.648Z,3.70
2023-02-06T17:12:57.707Z,3.23
2023-02-06T17:15:25.777Z,3.23
2023-02-06T17:17:54.848Z,3.07
2023-02-06T17:20:33.459Z,3.60
2023-02-06T17:23:01.750Z,3.20
2023-02-06T17:25:29.883Z,3.27
2023-02-06T17:27:58.334Z,3.33
2023-02-06T17:30:27.540Z,3.93
2023-02-06T17:32:56.223Z,3.10
2023-02-06T17:35:25.690Z,3.97
2023-02-06T17:37:54.100Z,3.37
2023-02-06T17:40:25.561Z,4.10
2023-02-06T17:42:54.166Z,3.83
2023-02-06T17:45:22.456Z,3.80
2023-02-06T17:47:50.765Z,3.87
2023-02-06T17:50:20.497Z,3.90
2023-02-06T17:52:52.630Z,3.50
2023-02-06T17:55:21.010Z,3.20
2023-02-06T17:57:49.122Z,3.17
2023-02-06T18:00:22.215Z,3.97
2023-02-06T18:02:50.645Z,3.47
2023-02-06T18:05:19.143Z,3.10
2023-02-06T18:07:50.554Z,3.37
2023-02-06T18:10:19.585Z,3.60
2023-02-06T18:12:47.853Z,3.70
2023-02-06T18:15:16.518Z,3.70
2023-02-06T18:17:45.099Z,3.20
2023-02-06T18:20:13.950Z,4.00
2023-02-06T18:22:42.089Z,3.90
2023-02-06T18:25:14.563Z,3.50
2023-02-06T18:27:45.465Z,4.03
2023-02-06T18:30:15.204Z,3.23
2023-02-06T18:32:43.525Z,3.57
2023-02-06T18:35:12.170Z,4.07
2023-02-06T18:37:40.160Z,3.90
2023-02-06T18:40:09.114Z,4.35
2023-02-06T18:42:53.878Z,2.97
2023-02-06T18:45:23.916Z,3.67
2023-02-06T18:47:52.223Z,4.30
2023-02-06T18:50:22.142Z,3.70
2023-02-06T18:52:50.771Z,3.53
2023-02-06T18:55:19.010Z,3.57
2023-02-06T18:57:48.620Z,3.40
2023-02-06T19:00:20.456Z,3.60
2023-02-06T19:02:48.818Z,3.53
2023-02-06T19:05:17.377Z,3.80
2023-02-06T19:07:50.596Z,3.57
2023-02-06T19:10:19.926Z,3.40
2023-02-06T19:12:49.513Z,4.37
2023-02-06T19:15:17.942Z,2.70
2023-02-06T19:17:45.911Z,3.50
2023-02-06T19:20:14.145Z,3.13
2023-02-06T19:22:42.229Z,3.00
2023-02-06T19:25:14.447Z,4.17
2023-02-06T19:27:42.919Z,3.37
2023-02-06T19:30:14.037Z,3.50
2023-02-06T19:32:42.084Z,3.20
2023-02-06T19:35:11.847Z,4.13
2023-02-06T19:37:40.144Z,3.57
2023-02-06T19:40:09.042Z,3.40
2023-02-06T19:42:37.063Z,2.60
2023-02-06T19:45:06.804Z,2.90
2023-02-06T19:47:36.966Z,3.00
2023-02-06T19:50:05.719Z,3.33
2023-02-06T19:52:35.148Z,3.00
2023-02-06T19:55:03.537Z,3.00
2023-02-06T19:57:31.675Z,3.17
2023-02-06T19:59:59.700Z,2.60
2023-02-06T20:02:27.655Z,2.80
2023-02-06T20:04:56.954Z,2.73
2023-02-06T20:07:24.973Z,3.20
2023-02-06T20:09:55.346Z,3.33
2023-02-06T20:12:23.321Z,3.53
2023-02-06T20:14:51.414Z,3.07
2023-02-06T20:17:19.382Z,3.20
2023-02-06T20:19:47.372Z,3.40
2023-02-06T20:22:16.764Z,2.87
2023-02-06T20:24:44.870Z,2.77
2023-02-06T20:27:14.539Z,2.90
2023-02-06T20:29:43.420Z,2.77
2023-02-06T20:32:12.008Z,3.80
2023-02-06T20:34:40.038Z,3.50
2023-02-06T20:37:08.075Z,3.13
2023-02-06T20:39:37.761Z,3.27
2023-02-06T20:42:06.057Z,3.20
2023-02-06T20:44:34.098Z,2.60
2023-02-06T20:47:02.063Z,2.73
2023-02-06T20:49:31.538Z,2.70
2023-02-06T20:51:59.751Z,2.90
2023-02-06T20:54:28.197Z,3.23
2023-02-06T20:56:57.578Z,2.70
2023-02-06T20:59:25.815Z,3.33
2023-02-06T21:01:54.062Z,2.67
2023-02-06T21:04:22.296Z,3.00
2023-02-06T21:06:50.313Z,3.70
2023-02-06T21:09:19.563Z,4.20
2023-02-06T21:11:50.881Z,3.60
2023-02-06T21:14:21.473Z,3.07
2023-02-06T21:16:50.209Z,4.00
2023-02-06T21:19:21.578Z,4.00
2023-02-06T21:21:50.602Z,3.03
2023-02-06T21:24:19.161Z,3.40
2023-02-06T21:26:47.140Z,2.63
2023-02-06T21:29:16.251Z,3.00
2023-02-06T21:31:46.684Z,3.07
2023-02-06T21:34:17.978Z,2.73
2023-02-06T21:36:46.560Z,3.57
2023-02-06T21:39:18.193Z,3.07
2023-02-06T21:41:47.305Z,2.83
2023-02-06T21:44:15.306Z,2.57
2023-02-06T21:46:44.622Z,3.50
2023-02-06T21:49:12.674Z,3.57
2023-02-06T21:51:40.990Z,4.23
2023-02-06T21:54:09.481Z,3.50
2023-02-06T21:56:39.627Z,3.33
2023-02-06T21:59:08.575Z,3.90
2023-02-06T22:01:39.045Z,2.50
2023-02-06T22:04:10.101Z,2.87
2023-02-06T22:06:39.079Z,3.10
2023-02-06T22:09:10.183Z,3.27
2023-02-06T22:11:41.015Z,2.57
2023-02-06T22:14:13.200Z,3.30
2023-02-06T22:16:41.563Z,2.83
2023-02-06T22:19:11.737Z,2.50
2023-02-06T22:21:40.448Z,2.50
2023-02-06T22:24:11.479Z,3.37
2023-02-06T22:26:41.372Z,3.23
2023-02-06T22:29:13.663Z,3.60
2023-02-06T22:31:43.177Z,2.37
2023-02-06T22:34:16.937Z,2.50
2023-02-06T22:36:45.415Z,2.80
2023-02-06T22:39:15.592Z,2.63
2023-02-06T22:41:45.579Z,2.63
2023-02-06T22:44:16.307Z,2.50
2023-02-06T22:46:46.347Z,2.67
2023-02-06T22:49:16.175Z,2.20
2023-02-06T22:51:44.384Z,2.40
2023-02-06T22:54:13.390Z,2.07
2023-02-06T22:56:42.863Z,3.60
2023-02-06T22:59:16.736Z,3.13
2023-02-06T23:01:47.214Z,3.10
2023-02-06T23:04:19.306Z,3.00
2023-02-06T23:06:48.855Z,2.53
2023-02-06T23:09:20.675Z,2.93
2023-02-06T23:11:49.253Z,2.20
2023-02-06T23:14:19.522Z,2.70
2023-02-06T23:16:48.373Z,2.27
2023-02-06T23:19:19.334Z,2.90
2023-02-06T23:21:49.432Z,2.40
2023-02-06T23:24:18.411Z,3.47
2023-02-06T23:26:50.419Z,2.57
2023-02-06T23:29:21.012Z,2.10
2023-02-06T23:31:49.989Z,2.20
2023-02-06T23:34:23.442Z,2.83
2023-02-06T23:36:52.787Z,2.23
2023-02-06T23:39:20.901Z,1.97
2023-02-06T23:41:48.906Z,2.90
2023-02-06T23:44:16.893Z,2.00
2023-02-06T23:46:44.923Z,2.10
2023-02-06T23:49:13.407Z,2.17
2023-02-06T23:51:42.745Z,2.17
2023-02-06T23:54:11.274Z,2.67
2023-02-06T23:56:39.745Z,1.90
2023-02-06T23:59:07.941Z,2.67
